Avalon, MO

5:24 PM CDT on October 22, 2014 (GMT -0500)
Northwest Chillicothe | Change Station
CLOSE
Current Station
Personal Weather Station
Location: Chillicothe, MO
Elevation: 843 ft
Nearby Weather Stations

Elev 843 ft 39.82 °N, 93.60 °W | Updated 5 seconds ago

Partly Cloudy
Partly Cloudy
65.3 °F
Feels Like 65.3 °F
N
0.9
Wind Variable Wind from East
Gusts 1.3 mph

Today
High -- | Low -- °F
--% Chance of Precip.
Yesterday
High -- | Low -- °F
Precip. -- in
7:31 AM 6:24 PM
Waning Crescent, 1% visible
Pressure 30.10 in
Visibility 10.0 miles
Clouds Mostly Cloudy 4500 ft
Overcast 5000 ft
Dew Point 50 °F
Humidity 58%
Rainfall 0.00 in
Snow Depth Not available.
UV 0 out of 12
Pollen 2.50 out of 12
Air Quality Not available.
Flu Activity No Activity
METAR KGPH 222235Z AUTO 14007KT 10SM BKN045 OVC050 21/10 A3010 RMK AO2

More Conditions Fewer Conditions

Pressure 30.10 in
Visibility 10.0 miles
Clouds Mostly Cloudy 4500 ft
Overcast 5000 ft
Dew Point 50 °F
Humidity 58%
Rainfall 0.00 in
Snow Depth Not available.
UV 0 out of 12
Pollen 2.50 out of 12
Air Quality Not available.
Flu Activity No Activity
METAR KGPH 222235Z AUTO 14007KT 10SM BKN045 OVC050 21/10 A3010 RMK AO2

More Conditions Fewer Conditions

10-Day Weather Forecast

Almanac

Astronomy

Oct. 22, 2014 Rise Set
Actual Time 7:31 AM CDT 6:24 PM CDT
Civil Twilight 7:04 AM CDT 6:52 PM CDT
Nautical Twilight 6:32 AM CDT 7:23 PM CDT
Astronomical Twilight 6:01 AM CDT 7:54 PM CDT
Moon 6:14 AM CDT 5:51 PM CDT
Length of Visible Light 11h 47m
Length of Day
10h 52m
Tomorrow will be 2m 26s shorter.
Waning Crescent, 1% of the Moon is Illuminated
Today
Waning Crescent
Oct 23
New
Oct 30
First Quarter
Nov 6
Full
Nov 14
Last Quarter

Today's Extremes

State Highs State Lows

Community

WunderPhotos

Upload Photos

1,764,064 photos uploaded!

WunderBlogs® & News

Nearby

Snow Depth

Station Depth Elevation
No new snow has been reported.

Earthquake Activity

City Distance Mag. Time & Date
No recent earthquake activity has been reported nearby.
Minimum magnitude displayed is 2.5.

Coastal Water Temperatures

Place Temperature
No Stations Reporting

Nearby Weather Stations